createdAt,value
2018-09-26T00:02:19.621Z,10.30
2018-09-26T00:04:52.188Z,10.30
2018-09-26T00:07:22.479Z,10.30
2018-09-26T00:09:52.244Z,10.20
2018-09-26T00:12:22.092Z,10.30
2018-09-26T00:14:51.856Z,10.20
2018-09-26T00:17:21.756Z,10.30
2018-09-26T00:19:51.245Z,10.20
2018-09-26T00:22:20.746Z,10.30
2018-09-26T00:24:50.583Z,10.30
2018-09-26T00:27:20.112Z,10.30
2018-09-26T00:29:49.584Z,10.30
2018-09-26T00:32:19.265Z,10.40
2018-09-26T00:34:51.102Z,10.40
2018-09-26T00:37:20.572Z,10.40
2018-09-26T00:39:49.930Z,10.40
2018-09-26T00:42:19.596Z,10.40
2018-09-26T00:44:50.364Z,10.40
2018-09-26T00:47:19.948Z,10.40
2018-09-26T00:49:49.912Z,10.50
2018-09-26T00:52:19.584Z,10.50
2018-09-26T00:54:48.724Z,10.40
2018-09-26T00:57:18.552Z,10.50
2018-09-26T00:59:48.014Z,10.50
2018-09-26T01:02:17.689Z,10.50
2018-09-26T01:04:47.528Z,10.40
2018-09-26T01:07:17.173Z,10.40
2018-09-26T01:09:46.613Z,10.40
2018-09-26T01:12:16.080Z,10.30
2018-09-26T01:14:45.690Z,10.20
2018-09-26T01:17:16.039Z,10.20
2018-09-26T01:19:45.425Z,10.10
2018-09-26T01:22:15.619Z,10.00
2018-09-26T01:24:45.157Z,9.90
2018-09-26T01:27:14.896Z,9.90
2018-09-26T01:29:44.605Z,9.90
2018-09-26T01:32:14.778Z,9.90
2018-09-26T01:34:44.554Z,9.80
2018-09-26T01:37:14.077Z,9.90
2018-09-26T01:39:43.637Z,9.80
2018-09-26T01:42:13.064Z,9.90
2018-09-26T01:44:42.455Z,9.80
2018-09-26T01:47:12.335Z,9.90
2018-09-26T01:49:42.199Z,9.90
2018-09-26T01:52:12.129Z,9.80
2018-09-26T01:54:41.750Z,9.80
2018-09-26T01:57:11.471Z,9.80
2018-09-26T01:59:41.504Z,9.80
2018-09-26T02:02:11.085Z,9.90
2018-09-26T02:04:40.601Z,9.90
2018-09-26T02:07:10.431Z,9.80
2018-09-26T02:09:40.133Z,9.70
2018-09-26T02:12:09.877Z,9.70
2018-09-26T02:14:39.250Z,9.70
2018-09-26T02:17:08.677Z,9.80
2018-09-26T02:19:38.592Z,9.90
2018-09-26T02:22:08.055Z,9.80
2018-09-26T02:24:37.466Z,9.90
2018-09-26T02:27:07.021Z,9.90
2018-09-26T02:29:37.282Z,9.90
2018-09-26T02:32:07.807Z,9.90
2018-09-26T02:34:37.329Z,10.00
2018-09-26T02:37:09.085Z,9.90
2018-09-26T02:39:39.899Z,9.90
2018-09-26T02:42:10.237Z,10.00
2018-09-26T02:44:40.093Z,10.00
2018-09-26T02:47:09.542Z,10.00
2018-09-26T02:49:38.797Z,10.00
2018-09-26T02:52:08.511Z,10.00
2018-09-26T02:54:38.136Z,10.00
2018-09-26T02:57:07.695Z,10.10
2018-09-26T02:59:37.375Z,10.00
2018-09-26T03:02:07.217Z,10.00
2018-09-26T03:04:36.793Z,10.10
2018-09-26T03:07:06.167Z,10.10
2018-09-26T03:09:35.896Z,10.00
2018-09-26T03:12:05.735Z,9.90
2018-09-26T03:14:35.143Z,9.90
2018-09-26T03:17:04.979Z,9.90
2018-09-26T03:19:35.062Z,9.90
2018-09-26T03:22:04.748Z,9.80
2018-09-26T03:24:34.161Z,9.80
2018-09-26T03:27:04.117Z,9.70
2018-09-26T03:29:33.857Z,9.80
2018-09-26T03:32:03.080Z,9.80
2018-09-26T03:34:32.582Z,9.80
2018-09-26T03:37:02.504Z,9.80
2018-09-26T03:39:32.881Z,9.60
2018-09-26T03:42:02.630Z,9.70
2018-09-26T03:44:32.852Z,9.80
2018-09-26T03:47:02.366Z,9.80
2018-09-26T03:49:32.231Z,9.80
2018-09-26T03:52:02.301Z,9.90
2018-09-26T03:54:31.999Z,9.90
2018-09-26T03:57:01.766Z,9.80
2018-09-26T03:59:31.504Z,9.90
2018-09-26T04:02:01.427Z,9.80
2018-09-26T04:04:31.528Z,9.70
2018-09-26T04:07:01.974Z,9.70
2018-09-26T04:09:31.526Z,9.70
2018-09-26T04:12:00.999Z,9.70
2018-09-26T04:14:30.884Z,9.70
2018-09-26T04:17:00.799Z,9.70
2018-09-26T04:19:30.891Z,9.70
2018-09-26T04:22:00.642Z,9.70
2018-09-26T04:24:30.708Z,9.60
2018-09-26T04:27:01.496Z,9.50
2018-09-26T04:29:33.030Z,9.50
2018-09-26T04:32:02.909Z,9.60
2018-09-26T04:34:33.245Z,9.60
2018-09-26T04:37:02.605Z,9.60
2018-09-26T04:39:31.993Z,9.60
2018-09-26T04:42:01.600Z,9.70
2018-09-26T04:44:31.242Z,9.70
2018-09-26T04:47:00.807Z,9.70
2018-09-26T04:49:30.101Z,9.80
2018-09-26T04:51:59.603Z,9.80
2018-09-26T04:54:28.883Z,9.80
2018-09-26T04:56:58.367Z,9.80
2018-09-26T04:59:27.829Z,9.70
2018-09-26T05:01:57.541Z,9.80
2018-09-26T05:04:28.121Z,9.70
2018-09-26T05:06:57.640Z,9.70
2018-09-26T05:09:27.371Z,9.60
2018-09-26T05:11:57.333Z,9.50
2018-09-26T05:14:27.891Z,9.60
2018-09-26T05:16:58.091Z,9.50
2018-09-26T05:19:28.095Z,9.50
2018-09-26T05:21:59.375Z,9.50
2018-09-26T05:24:30.097Z,9.50
2018-09-26T05:27:00.727Z,9.30
2018-09-26T05:29:32.313Z,9.40
2018-09-26T05:32:02.685Z,9.40
2018-09-26T05:34:34.212Z,9.40
2018-09-26T05:37:04.624Z,9.40
2018-09-26T05:39:35.667Z,9.30
2018-09-26T05:42:06.722Z,9.30
2018-09-26T05:44:37.084Z,9.20
2018-09-26T05:47:07.978Z,9.30
2018-09-26T05:49:39.381Z,9.30
2018-09-26T05:52:08.737Z,9.40
2018-09-26T05:54:40.118Z,9.40
2018-09-26T05:57:11.122Z,9.30
2018-09-26T05:59:41.233Z,9.40
2018-09-26T06:02:12.713Z,9.30
2018-09-26T06:04:43.121Z,9.30
2018-09-26T06:07:13.442Z,9.40
2018-09-26T06:09:44.551Z,9.40
2018-09-26T06:12:15.613Z,9.50
2018-09-26T06:14:46.912Z,9.50
2018-09-26T06:17:17.073Z,9.50
2018-09-26T06:19:47.541Z,9.50
2018-09-26T06:22:17.923Z,9.60
2018-09-26T06:24:48.644Z,9.60
2018-09-26T06:27:19.056Z,9.60
2018-09-26T06:29:49.619Z,9.70
2018-09-26T06:32:19.889Z,9.60
2018-09-26T06:34:50.158Z,9.70
2018-09-26T06:37:20.606Z,9.80
2018-09-26T06:39:51.271Z,9.80
2018-09-26T06:42:22.056Z,9.80
2018-09-26T06:44:52.938Z,9.80
2018-09-26T06:47:23.479Z,9.90
2018-09-26T06:49:54.327Z,9.90
2018-09-26T06:52:24.457Z,9.90
2018-09-26T06:54:56.194Z,10.00
2018-09-26T06:57:27.172Z,10.10
2018-09-26T06:59:57.883Z,10.10
2018-09-26T07:02:28.767Z,10.10
2018-09-26T07:04:58.927Z,10.10
2018-09-26T07:07:29.354Z,10.20
2018-09-26T07:09:59.346Z,10.20
2018-09-26T07:12:29.552Z,10.20
2018-09-26T07:15:00.030Z,10.30
2018-09-26T07:17:30.867Z,10.30
2018-09-26T07:20:01.010Z,10.40
2018-09-26T07:22:32.844Z,10.50
2018-09-26T07:25:03.632Z,10.40
2018-09-26T07:27:34.474Z,10.50
2018-09-26T07:30:05.912Z,10.60
2018-09-26T07:32:39.560Z,10.60
2018-09-26T07:35:10.766Z,10.60
2018-09-26T07:37:41.357Z,10.60
2018-09-26T07:40:11.602Z,10.70
2018-09-26T07:42:42.464Z,10.60
2018-09-26T07:45:13.693Z,10.80
2018-09-26T07:47:44.572Z,10.90
2018-09-26T07:50:15.707Z,10.80
2018-09-26T07:52:46.439Z,10.90
2018-09-26T07:55:17.392Z,10.90
2018-09-26T07:57:47.607Z,11.00
2018-09-26T08:00:18.622Z,11.00
2018-09-26T08:02:49.498Z,10.90
2018-09-26T08:05:19.940Z,11.00
2018-09-26T08:07:50.677Z,11.10
2018-09-26T08:10:21.882Z,11.20
2018-09-26T08:12:53.717Z,11.30
2018-09-26T08:15:24.464Z,11.40
2018-09-26T08:17:55.394Z,11.40
2018-09-26T08:20:26.393Z,11.50
2018-09-26T08:22:56.968Z,11.60
2018-09-26T08:25:28.478Z,11.60
2018-09-26T08:27:58.510Z,11.70
2018-09-26T08:30:29.440Z,11.80
2018-09-26T08:32:59.876Z,11.90
2018-09-26T08:35:30.478Z,11.90
2018-09-26T08:38:00.914Z,12.00
2018-09-26T08:40:31.003Z,12.00
2018-09-26T08:43:03.142Z,12.10
2018-09-26T08:45:34.646Z,12.20
2018-09-26T08:48:06.272Z,12.40
2018-09-26T08:50:37.678Z,12.40
2018-09-26T08:53:08.781Z,12.60
2018-09-26T08:55:40.302Z,12.70
2018-09-26T08:58:11.276Z,12.70
2018-09-26T09:00:41.204Z,12.80
2018-09-26T09:03:12.088Z,12.80
2018-09-26T09:05:42.017Z,12.90
2018-09-26T09:08:12.474Z,13.00
2018-09-26T09:10:42.444Z,13.10
2018-09-26T09:13:12.469Z,13.20
2018-09-26T09:15:44.316Z,13.40
2018-09-26T09:18:14.406Z,13.40
2018-09-26T09:20:44.946Z,13.50
2018-09-26T09:23:15.606Z,13.60
2018-09-26T09:25:45.940Z,13.70
2018-09-26T09:28:16.329Z,13.80
2018-09-26T09:30:46.931Z,13.90
2018-09-26T09:33:17.314Z,14.00
2018-09-26T09:35:47.968Z,14.00
2018-09-26T09:38:18.148Z,14.20
2018-09-26T09:40:48.447Z,14.20
2018-09-26T09:43:18.332Z,14.40
2018-09-26T09:45:48.594Z,14.30
2018-09-26T09:48:18.564Z,14.50
2018-09-26T09:50:48.513Z,14.40
2018-09-26T09:53:20.907Z,14.40
2018-09-26T09:55:52.150Z,14.40
2018-09-26T09:58:23.605Z,14.50
2018-09-26T10:00:58.540Z,14.50
2018-09-26T10:03:28.566Z,14.50
2018-09-26T10:05:58.465Z,14.60
2018-09-26T10:08:29.402Z,14.70
2018-09-26T10:10:59.455Z,14.70
2018-09-26T10:13:29.491Z,14.90
2018-09-26T10:15:59.539Z,14.90
2018-09-26T10:18:29.555Z,15.10
2018-09-26T10:20:59.448Z,14.90
2018-09-26T10:23:30.611Z,15.00
2018-09-26T10:26:01.161Z,15.00
2018-09-26T10:28:33.243Z,15.00
2018-09-26T10:31:04.289Z,15.20
2018-09-26T10:33:34.342Z,15.30
2018-09-26T10:36:04.323Z,15.40
2018-09-26T10:38:34.449Z,15.40
2018-09-26T10:41:05.113Z,15.60
2018-09-26T10:43:35.711Z,15.60
2018-09-26T10:46:06.207Z,15.70
2018-09-26T10:48:36.390Z,15.70
2018-09-26T10:51:06.909Z,15.70
2018-09-26T10:53:37.252Z,15.80
2018-09-26T10:56:08.022Z,15.90
2018-09-26T10:58:38.783Z,15.90
2018-09-26T11:01:09.396Z,16.00
2018-09-26T11:03:39.443Z,16.20
2018-09-26T11:06:09.381Z,16.00
2018-09-26T11:08:39.130Z,16.10
2018-09-26T11:11:09.169Z,16.20
2018-09-26T11:13:38.963Z,16.10
2018-09-26T11:16:08.665Z,16.10
2018-09-26T11:18:38.117Z,16.10
2018-09-26T11:21:08.216Z,16.10
2018-09-26T11:23:38.352Z,16.10
2018-09-26T11:26:08.358Z,16.30
2018-09-26T11:28:40.699Z,16.40
2018-09-26T11:31:10.603Z,16.60
2018-09-26T11:33:40.631Z,16.50
2018-09-26T11:36:10.737Z,16.70
2018-09-26T11:38:40.767Z,16.80
2018-09-26T11:41:10.915Z,16.70
2018-09-26T11:43:40.611Z,16.80
2018-09-26T11:46:10.751Z,16.90
2018-09-26T11:48:40.759Z,16.80
2018-09-26T11:51:10.715Z,16.90
2018-09-26T11:53:40.544Z,17.00
2018-09-26T11:56:10.783Z,17.10
2018-09-26T11:58:40.748Z,17.10
2018-09-26T12:01:10.877Z,17.10
2018-09-26T12:03:41.137Z,17.20
2018-09-26T12:06:12.120Z,17.10
2018-09-26T12:08:42.378Z,17.20
2018-09-26T12:11:13.775Z,17.30
2018-09-26T12:13:43.391Z,17.30
2018-09-26T12:16:13.319Z,17.40
2018-09-26T12:18:45.026Z,17.40
2018-09-26T12:21:15.284Z,17.60
2018-09-26T12:23:45.702Z,17.40
2018-09-26T12:26:15.731Z,17.50
2018-09-26T12:28:45.715Z,17.60
2018-09-26T12:31:15.675Z,17.70
2018-09-26T12:33:45.643Z,17.70
2018-09-26T12:36:15.694Z,17.70
2018-09-26T12:38:45.511Z,17.80
2018-09-26T12:41:15.533Z,17.90
2018-09-26T12:43:45.295Z,17.90
2018-09-26T12:46:15.840Z,18.10
2018-09-26T12:48:45.685Z,18.10
2018-09-26T12:51:15.596Z,18.20
2018-09-26T12:53:45.407Z,18.30
2018-09-26T12:56:15.680Z,18.30
2018-09-26T12:58:45.856Z,18.30
2018-09-26T13:01:16.399Z,18.10
2018-09-26T13:03:46.733Z,18.30
2018-09-26T13:06:16.512Z,18.30
2018-09-26T13:08:46.701Z,18.30
2018-09-26T13:11:16.462Z,18.30
2018-09-26T13:13:46.402Z,18.40
2018-09-26T13:16:16.821Z,18.40
2018-09-26T13:18:47.498Z,18.50
2018-09-26T13:21:17.772Z,18.60
2018-09-26T13:23:48.157Z,18.60
2018-09-26T13:26:18.939Z,18.60
2018-09-26T13:28:48.568Z,18.60
2018-09-26T13:31:18.495Z,18.70
2018-09-26T13:33:48.613Z,18.70
2018-09-26T13:36:18.616Z,18.70
2018-09-26T13:38:48.388Z,18.80
2018-09-26T13:41:18.026Z,18.70
2018-09-26T13:43:48.660Z,18.80
2018-09-26T13:46:18.774Z,18.70
2018-09-26T13:48:48.340Z,18.60
2018-09-26T13:51:18.171Z,18.60
2018-09-26T13:53:48.218Z,18.70
2018-09-26T13:56:18.096Z,18.70
2018-09-26T13:58:48.298Z,18.70
2018-09-26T14:01:18.855Z,18.80
2018-09-26T14:03:49.756Z,18.90
2018-09-26T14:06:19.617Z,18.90
2018-09-26T14:08:49.550Z,18.80
2018-09-26T14:11:20.827Z,18.70
2018-09-26T14:13:51.166Z,18.70
2018-09-26T14:16:21.897Z,18.70
2018-09-26T14:18:52.958Z,18.70
2018-09-26T14:21:23.472Z,18.80
2018-09-26T14:23:53.304Z,18.80
2018-09-26T14:26:23.778Z,18.90
2018-09-26T14:28:55.079Z,18.90
2018-09-26T14:31:26.139Z,18.80
2018-09-26T14:33:56.698Z,18.80
2018-09-26T14:36:27.112Z,18.90
2018-09-26T14:38:57.326Z,18.90
2018-09-26T14:41:27.290Z,18.90
2018-09-26T14:43:57.290Z,19.00
2018-09-26T14:46:27.201Z,18.90
2018-09-26T14:48:57.749Z,18.90
2018-09-26T14:51:27.966Z,18.90
2018-09-26T14:53:59.041Z,18.90
2018-09-26T14:56:29.415Z,18.90
2018-09-26T14:58:59.654Z,18.90
2018-09-26T15:01:29.888Z,18.90
2018-09-26T15:03:59.870Z,18.90
2018-09-26T15:06:29.938Z,18.80
2018-09-26T15:08:59.816Z,18.80
2018-09-26T15:11:29.799Z,18.90
2018-09-26T15:13:59.767Z,18.90
2018-09-26T15:16:29.965Z,18.80
2018-09-26T15:19:00.895Z,18.90
2018-09-26T15:21:30.856Z,18.90
2018-09-26T15:24:00.901Z,18.90
2018-09-26T15:26:32.081Z,18.90
2018-09-26T15:29:02.458Z,18.80
2018-09-26T15:31:32.772Z,18.80
2018-09-26T15:34:02.340Z,18.80
2018-09-26T15:36:32.757Z,18.80
2018-09-26T15:39:03.154Z,18.90
2018-09-26T15:41:33.447Z,18.90
2018-09-26T15:44:03.771Z,18.80
2018-09-26T15:46:33.668Z,18.70
2018-09-26T15:49:03.929Z,18.60
2018-09-26T15:51:35.159Z,18.50
2018-09-26T15:54:05.931Z,18.50
2018-09-26T15:56:37.273Z,18.50
2018-09-26T15:59:07.923Z,18.60
2018-09-26T16:01:38.634Z,18.60
2018-09-26T16:04:09.772Z,18.60
2018-09-26T16:06:40.060Z,18.50
2018-09-26T16:09:10.910Z,18.30
2018-09-26T16:11:42.294Z,18.30
2018-09-26T16:14:12.692Z,18.30
2018-09-26T16:16:43.458Z,18.30
2018-09-26T16:19:14.669Z,18.20
2018-09-26T16:21:45.358Z,18.20
2018-09-26T16:24:16.823Z,18.20
2018-09-26T16:26:47.181Z,18.10
2018-09-26T16:29:17.531Z,18.00
2018-09-26T16:31:47.630Z,18.10
2018-09-26T16:34:18.572Z,18.00
2018-09-26T16:36:49.315Z,18.00
2018-09-26T16:39:19.396Z,18.00
2018-09-26T16:41:49.876Z,18.00
2018-09-26T16:44:20.879Z,17.90
2018-09-26T16:46:51.994Z,18.00
2018-09-26T16:49:23.166Z,17.90
2018-09-26T16:51:54.484Z,17.90
2018-09-26T16:54:24.786Z,17.90
2018-09-26T16:56:57.127Z,17.90
2018-09-26T16:59:27.804Z,17.80
2018-09-26T17:01:58.333Z,17.80
2018-09-26T17:04:31.297Z,17.70
2018-09-26T17:07:02.158Z,17.70
2018-09-26T17:09:32.249Z,17.70
2018-09-26T17:12:02.343Z,17.60
2018-09-26T17:14:31.832Z,17.60
2018-09-26T17:17:01.279Z,17.60
2018-09-26T17:19:30.634Z,17.50
2018-09-26T17:21:59.815Z,17.40
2018-09-26T17:24:28.996Z,17.40
2018-09-26T17:26:58.577Z,17.40
2018-09-26T17:29:28.634Z,17.30
2018-09-26T17:31:57.857Z,17.30
2018-09-26T17:34:27.079Z,17.30
2018-09-26T17:36:56.398Z,17.30
2018-09-26T17:39:25.422Z,17.30
2018-09-26T17:41:54.766Z,17.30
2018-09-26T17:44:23.989Z,17.20
2018-09-26T17:46:53.238Z,17.20
2018-09-26T17:49:22.454Z,17.10
2018-09-26T17:51:52.220Z,17.10
2018-09-26T17:54:21.627Z,17.10
2018-09-26T17:56:50.771Z,17.00
2018-09-26T17:59:19.879Z,17.10
2018-09-26T18:01:49.244Z,17.10
2018-09-26T18:04:18.400Z,17.00
2018-09-26T18:06:50.234Z,17.00
2018-09-26T18:09:22.778Z,17.00
2018-09-26T18:11:52.258Z,17.00
2018-09-26T18:14:22.320Z,17.10
2018-09-26T18:16:51.940Z,17.10
2018-09-26T18:19:21.414Z,17.10
2018-09-26T18:21:51.582Z,17.20
2018-09-26T18:24:21.490Z,17.20
2018-09-26T18:26:51.565Z,17.20
2018-09-26T18:29:21.228Z,17.40
2018-09-26T18:31:51.075Z,17.50
2018-09-26T18:34:20.437Z,17.60
2018-09-26T18:36:49.850Z,17.70
2018-09-26T18:39:21.657Z,17.60
2018-09-26T18:41:51.329Z,17.60
2018-09-26T18:44:20.699Z,17.60
2018-09-26T18:46:51.202Z,17.60
2018-09-26T18:49:20.818Z,17.60
2018-09-26T18:51:50.487Z,17.60
2018-09-26T18:54:20.481Z,17.50
2018-09-26T18:56:50.373Z,17.40
2018-09-26T18:59:20.724Z,17.60
2018-09-26T19:01:51.195Z,17.50
2018-09-26T19:04:22.436Z,17.40
2018-09-26T19:06:51.984Z,17.50
2018-09-26T19:09:21.917Z,17.60
2018-09-26T19:11:51.566Z,17.50
2018-09-26T19:14:20.816Z,17.40
2018-09-26T19:16:51.068Z,17.40
2018-09-26T19:19:21.182Z,17.40
2018-09-26T19:21:51.234Z,17.40
2018-09-26T19:24:21.290Z,17.50
2018-09-26T19:26:50.840Z,17.40
2018-09-26T19:29:20.413Z,17.40
2018-09-26T19:31:50.545Z,17.40
2018-09-26T19:34:20.557Z,17.40
2018-09-26T19:36:50.188Z,17.40
2018-09-26T19:39:19.508Z,17.40
2018-09-26T19:41:49.381Z,17.40
2018-09-26T19:44:19.081Z,17.30
2018-09-26T19:46:49.245Z,17.40
2018-09-26T19:49:18.875Z,17.30
2018-09-26T19:51:49.491Z,17.30
2018-09-26T19:54:19.590Z,17.30
2018-09-26T19:56:48.821Z,17.30
2018-09-26T19:59:18.226Z,17.40
2018-09-26T20:01:47.807Z,17.40
2018-09-26T20:04:17.141Z,17.40
2018-09-26T20:06:46.292Z,17.40
2018-09-26T20:09:15.920Z,17.40
2018-09-26T20:11:45.290Z,17.30
2018-09-26T20:14:15.040Z,17.30
2018-09-26T20:16:45.045Z,17.20
2018-09-26T20:19:14.839Z,17.20
2018-09-26T20:21:44.116Z,17.20
2018-09-26T20:24:14.169Z,17.20
2018-09-26T20:26:43.588Z,17.10
2018-09-26T20:29:13.067Z,17.20
2018-09-26T20:31:42.937Z,17.20
2018-09-26T20:34:12.711Z,17.20
2018-09-26T20:36:42.105Z,17.30
2018-09-26T20:39:12.303Z,17.40
2018-09-26T20:41:41.939Z,17.60
2018-09-26T20:44:11.369Z,17.50
2018-09-26T20:46:40.891Z,17.60
2018-09-26T20:49:10.995Z,17.70
2018-09-26T20:51:40.921Z,17.80
2018-09-26T20:54:10.483Z,17.70
2018-09-26T20:56:40.027Z,17.60
2018-09-26T20:59:09.676Z,17.70
2018-09-26T21:01:39.352Z,17.70
2018-09-26T21:04:09.596Z,17.60
2018-09-26T21:06:39.371Z,17.60
2018-09-26T21:09:10.653Z,17.60
2018-09-26T21:11:40.676Z,17.50
2018-09-26T21:14:10.496Z,17.50
2018-09-26T21:16:39.979Z,17.40
2018-09-26T21:19:10.274Z,17.30
2018-09-26T21:21:40.172Z,17.40
2018-09-26T21:24:09.657Z,17.40
2018-09-26T21:26:39.769Z,17.40
2018-09-26T21:29:09.432Z,17.40
2018-09-26T21:31:39.583Z,17.40
2018-09-26T21:34:09.431Z,17.40
2018-09-26T21:36:39.386Z,17.40
2018-09-26T21:39:09.671Z,17.40
2018-09-26T21:41:39.553Z,17.40
2018-09-26T21:44:09.030Z,17.40
2018-09-26T21:46:39.226Z,17.30
2018-09-26T21:49:09.111Z,17.30
2018-09-26T21:51:38.950Z,17.40
2018-09-26T21:54:08.093Z,17.30
2018-09-26T21:56:37.492Z,17.30
2018-09-26T21:59:07.071Z,17.40
2018-09-26T22:01:37.020Z,17.30
2018-09-26T22:04:06.524Z,17.30
2018-09-26T22:06:37.054Z,17.20
2018-09-26T22:09:08.124Z,17.20
2018-09-26T22:11:37.460Z,17.20
2018-09-26T22:14:06.705Z,17.20
2018-09-26T22:16:35.885Z,17.20
2018-09-26T22:19:05.203Z,17.20
2018-09-26T22:21:35.010Z,17.20
2018-09-26T22:24:04.222Z,17.20
2018-09-26T22:26:34.243Z,17.20
2018-09-26T22:29:04.559Z,17.20
2018-09-26T22:31:33.864Z,17.20
2018-09-26T22:34:03.176Z,17.20
2018-09-26T22:36:32.676Z,17.30
2018-09-26T22:39:02.200Z,17.20
2018-09-26T22:41:32.047Z,17.10
2018-09-26T22:44:01.631Z,17.20
2018-09-26T22:46:32.256Z,17.20
2018-09-26T22:49:01.899Z,17.30
2018-09-26T22:51:32.041Z,17.20
2018-09-26T22:54:01.769Z,17.30
2018-09-26T22:56:31.896Z,17.30
2018-09-26T22:59:01.497Z,17.40
2018-09-26T23:01:31.055Z,17.40
2018-09-26T23:04:00.611Z,17.40
2018-09-26T23:06:30.015Z,17.50
2018-09-26T23:08:59.638Z,17.50
2018-09-26T23:11:28.965Z,17.50
2018-09-26T23:13:58.153Z,17.50
2018-09-26T23:16:27.599Z,17.50
2018-09-26T23:18:57.021Z,17.60
2018-09-26T23:21:26.309Z,17.60
2018-09-26T23:23:55.741Z,17.60
2018-09-26T23:26:25.947Z,17.60
2018-09-26T23:28:55.725Z,17.60
2018-09-26T23:31:25.409Z,17.60
2018-09-26T23:33:55.955Z,17.60
2018-09-26T23:36:25.423Z,17.50
2018-09-26T23:38:55.593Z,17.50
2018-09-26T23:41:25.100Z,17.50
2018-09-26T23:43:54.693Z,17.50
2018-09-26T23:46:24.485Z,17.50
2018-09-26T23:48:53.965Z,17.50
2018-09-26T23:51:23.635Z,17.50
2018-09-26T23:53:53.000Z,17.50
2018-09-26T23:56:22.449Z,17.60
2018-09-26T23:58:51.719Z,17.50
